Time,TemperatureF,DewpointF,PressureIn,WindDirection,WindDirectionDegrees,WindSpeedMPH,WindSpeedGustMPH,Humidity,HourlyPrecipIn,Conditions,Clouds,dailyrainin,SoftwareType,DateUTC
2013-05-08 00:02:00,65.9,54.0,28.50,SSE,157,7.9,8.9,65,0.00,,,0.00,Rainwise IP-100,2013-05-08 05:02:00,
2013-05-08 00:07:00,66.9,53.5,28.51,South,180,3.7,10.7,61,0.00,,,0.00,Rainwise IP-100,2013-05-08 05:07:00,
2013-05-08 00:12:00,67.4,53.0,28.51,SSE,157,4.2,9.1,59,0.00,,,0.00,Rainwise IP-100,2013-05-08 05:12:00,
2013-05-08 00:17:00,67.6,52.0,28.51,SSE,157,2.6,7.2,58,0.00,,,0.00,Rainwise IP-100,2013-05-08 05:17:00,
2013-05-08 00:22:00,67.6,52.0,28.51,SSE,157,2.6,5.6,58,0.00,,,0.00,Rainwise IP-100,2013-05-08 05:22:00,
2013-05-08 00:27:00,67.5,52.0,28.51,SE,135,2.1,5.8,57,0.00,,,0.00,Rainwise IP-100,2013-05-08 05:27:00,
2013-05-08 00:32:00,67.3,52.0,28.51,SSE,157,1.2,3.7,58,0.00,,,0.00,Rainwise IP-100,2013-05-08 05:32:00,
2013-05-08 00:37:00,66.9,53.0,28.51,South,180,0.0,2.3,59,0.00,,,0.00,Rainwise IP-100,2013-05-08 05:37:00,
2013-05-08 00:42:00,66.8,52.0,28.51,SSE,157,1.9,2.8,59,0.00,,,0.00,Rainwise IP-100,2013-05-08 05:42:00,
2013-05-08 00:47:00,66.7,52.0,28.51,SSE,157,2.1,3.3,59,0.00,,,0.00,Rainwise IP-100,2013-05-08 05:47:00,
2013-05-08 00:52:00,66.4,52.0,28.51,SSE,157,0.0,2.3,60,0.00,,,0.00,Rainwise IP-100,2013-05-08 05:52:00,
2013-05-08 00:57:00,66.3,52.0,28.51,SSE,157,0.0,3.5,60,0.00,,,0.00,Rainwise IP-100,2013-05-08 05:57:00,
2013-05-08 01:02:00,66.2,52.0,28.51,SE,135,1.9,3.0,60,0.00,,,0.00,Rainwise IP-100,2013-05-08 06:02:00,
2013-05-08 01:07:00,66.2,52.0,28.51,SSE,157,1.4,5.4,60,0.00,,,0.00,Rainwise IP-100,2013-05-08 06:07:00,
2013-05-08 01:12:00,66.4,51.0,28.50,SSE,157,1.9,7.7,59,0.00,,,0.00,Rainwise IP-100,2013-05-08 06:12:00,
2013-05-08 01:17:00,66.8,51.0,28.51,SSW,202,1.6,6.1,57,0.00,,,0.00,Rainwise IP-100,2013-05-08 06:17:00,
2013-05-08 01:22:00,67.1,51.0,28.50,SSW,202,0.0,2.8,56,0.00,,,0.00,Rainwise IP-100,2013-05-08 06:22:00,
2013-05-08 01:27:00,67.1,51.0,28.50,South,180,2.1,4.7,56,0.00,,,0.00,Rainwise IP-100,2013-05-08 06:27:00,
2013-05-08 01:32:00,66.9,51.0,28.50,SSE,157,3.5,4.9,56,0.00,,,0.00,Rainwise IP-100,2013-05-08 06:32:00,
2013-05-08 01:37:00,67.1,50.5,28.50,SSE,157,2.8,5.1,55,0.00,,,0.00,Rainwise IP-100,2013-05-08 06:37:00,
2013-05-08 01:42:00,67.2,50.5,28.50,SE,135,1.4,5.4,55,0.00,,,0.00,Rainwise IP-100,2013-05-08 06:42:00,
2013-05-08 01:47:00,67.1,50.5,28.50,SSE,157,3.5,4.9,55,0.00,,,0.00,Rainwise IP-100,2013-05-08 06:47:00,
2013-05-08 01:52:00,67.1,50.5,28.51,SSE,157,1.9,5.6,55,0.00,,,0.00,Rainwise IP-100,2013-05-08 06:52:00,
2013-05-08 01:57:00,66.8,50.0,28.51,SE,135,2.6,4.0,55,0.00,,,0.00,Rainwise IP-100,2013-05-08 06:57:00,
2013-05-08 02:02:00,66.5,50.0,28.50,SE,135,2.1,5.1,55,0.00,,,0.00,Rainwise IP-100,2013-05-08 07:02:00,
2013-05-08 02:07:00,66.2,50.0,28.50,SSE,157,1.6,5.4,56,0.00,,,0.00,Rainwise IP-100,2013-05-08 07:07:00,
2013-05-08 02:12:00,66.1,50.0,28.50,SSE,157,3.7,5.4,56,0.00,,,0.00,Rainwise IP-100,2013-05-08 07:12:00,
2013-05-08 02:17:00,66.0,50.0,28.50,SSE,157,0.0,7.2,56,0.00,,,0.00,Rainwise IP-100,2013-05-08 07:17:00,
2013-05-08 02:22:00,65.9,50.0,28.50,SE,135,4.4,7.2,56,0.00,,,0.00,Rainwise IP-100,2013-05-08 07:22:00,
2013-05-08 02:27:00,65.8,50.0,28.50,SSE,157,3.7,7.0,56,0.00,,,0.00,Rainwise IP-100,2013-05-08 07:27:00,
2013-05-08 02:32:00,66.0,50.0,28.50,SSE,157,2.1,5.8,56,0.00,,,0.00,Rainwise IP-100,2013-05-08 07:32:00,
2013-05-08 02:37:00,66.1,50.0,28.51,SSE,157,0.0,3.7,56,0.00,,,0.00,Rainwise IP-100,2013-05-08 07:37:00,
2013-05-08 02:42:00,65.8,50.0,28.51,SSE,157,0.0,0.0,56,0.00,,,0.00,Rainwise IP-100,2013-05-08 07:42:00,
2013-05-08 02:47:00,65.4,50.0,28.51,SSE,157,0.0,1.9,57,0.00,,,0.00,Rainwise IP-100,2013-05-08 07:47:00,
2013-05-08 02:52:00,65.2,50.0,28.51,South,180,1.4,3.5,58,0.00,,,0.00,Rainwise IP-100,2013-05-08 07:52:00,
2013-05-08 02:57:00,65.2,50.5,28.52,SW,225,1.6,2.3,59,0.00,,,0.00,Rainwise IP-100,2013-05-08 07:57:00,
2013-05-08 03:02:00,65.1,50.5,28.52,West,270,1.6,3.3,59,0.00,,,0.00,Rainwise IP-100,2013-05-08 08:02:00,
2013-05-08 03:07:00,65.3,51.0,28.52,SW,225,1.4,4.7,60,0.00,,,0.00,Rainwise IP-100,2013-05-08 08:07:00,
2013-05-08 03:12:00,65.5,51.0,28.52,SW,225,0.0,3.7,60,0.00,,,0.00,Rainwise IP-100,2013-05-08 08:12:00,
2013-05-08 03:17:00,65.7,51.0,28.52,SW,225,3.3,4.7,61,0.00,,,0.00,Rainwise IP-100,2013-05-08 08:17:00,
2013-05-08 03:22:00,65.8,52.0,28.52,WSW,247,2.6,3.7,61,0.00,,,0.00,Rainwise IP-100,2013-05-08 08:22:00,
2013-05-08 03:27:00,65.8,53.0,28.52,SSW,202,2.3,5.4,62,0.00,,,0.00,Rainwise IP-100,2013-05-08 08:27:00,
2013-05-08 03:32:00,65.7,53.0,28.52,SSW,202,0.0,3.7,63,0.00,,,0.00,Rainwise IP-100,2013-05-08 08:32:00,
2013-05-08 03:37:00,65.5,53.0,28.52,South,180,0.0,3.5,63,0.00,,,0.00,Rainwise IP-100,2013-05-08 08:37:00,
2013-05-08 03:42:00,65.3,53.0,28.52,South,180,0.0,1.6,64,0.00,,,0.00,Rainwise IP-100,2013-05-08 08:42:00,
2013-05-08 03:47:00,65.1,53.0,28.52,South,180,0.0,1.2,65,0.00,,,0.00,Rainwise IP-100,2013-05-08 08:47:00,
2013-05-08 03:52:00,64.9,53.0,28.52,South,180,0.0,0.0,65,0.00,,,0.00,Rainwise IP-100,2013-05-08 08:52:00,
2013-05-08 03:57:00,64.6,53.0,28.52,South,180,0.0,0.0,65,0.00,,,0.00,Rainwise IP-100,2013-05-08 08:57:00,
2013-05-08 04:02:00,64.2,53.0,28.52,South,180,0.0,0.0,66,0.00,,,0.00,Rainwise IP-100,2013-05-08 09:02:00,
2013-05-08 04:07:00,63.8,53.0,28.52,South,180,1.4,1.4,67,0.00,,,0.00,Rainwise IP-100,2013-05-08 09:07:00,
2013-05-08 04:12:00,63.4,53.5,28.52,SSE,157,2.6,2.6,69,0.00,,,0.00,Rainwise IP-100,2013-05-08 09:12:00,
2013-05-08 04:17:00,63.3,53.5,28.52,SSE,157,2.1,3.7,70,0.00,,,0.00,Rainwise IP-100,2013-05-08 09:17:00,
2013-05-08 04:22:00,63.2,53.5,28.51,SSE,157,2.1,3.5,70,0.00,,,0.00,Rainwise IP-100,2013-05-08 09:22:00,
2013-05-08 04:27:00,63.1,53.5,28.51,SE,135,2.3,3.5,71,0.00,,,0.00,Rainwise IP-100,2013-05-08 09:27:00,
2013-05-08 04:32:00,63.1,53.5,28.51,SE,135,1.9,4.0,71,0.00,,,0.00,Rainwise IP-100,2013-05-08 09:32:00,
2013-05-08 04:37:00,63.0,54.0,28.51,SE,135,3.3,4.4,72,0.00,,,0.00,Rainwise IP-100,2013-05-08 09:37:00,
2013-05-08 04:42:00,63.0,54.0,28.50,SE,135,3.3,4.0,72,0.00,,,0.00,Rainwise IP-100,2013-05-08 09:42:00,
2013-05-08 04:47:00,62.9,54.0,28.50,SSE,157,1.6,3.5,72,0.00,,,0.00,Rainwise IP-100,2013-05-08 09:47:00,
2013-05-08 04:52:00,62.7,53.5,28.51,SSE,157,2.3,4.2,72,0.00,,,0.00,Rainwise IP-100,2013-05-08 09:52:00,
2013-05-08 04:57:00,62.6,54.0,28.50,SSE,157,1.6,5.1,73,0.00,,,0.00,Rainwise IP-100,2013-05-08 09:57:00,
2013-05-08 05:02:00,62.5,54.0,28.50,SE,135,2.3,3.5,73,0.00,,,0.00,Rainwise IP-100,2013-05-08 10:02:00,
2013-05-08 05:07:00,62.5,54.0,28.50,SE,135,1.9,3.0,73,0.00,,,0.00,Rainwise IP-100,2013-05-08 10:07:00,
2013-05-08 05:12:00,62.6,54.0,28.51,SE,135,1.6,4.4,74,0.00,,,0.00,Rainwise IP-100,2013-05-08 10:12:00,
2013-05-08 05:17:00,62.6,54.0,28.51,SSE,157,2.6,3.7,74,0.00,,,0.00,Rainwise IP-100,2013-05-08 10:17:00,
2013-05-08 05:22:00,62.6,54.0,28.50,SSE,157,2.3,4.4,74,0.00,,,0.00,Rainwise IP-100,2013-05-08 10:22:00,
2013-05-08 05:27:00,62.5,54.0,28.50,SE,135,2.6,4.0,74,0.00,,,0.00,Rainwise IP-100,2013-05-08 10:27:00,
2013-05-08 05:32:00,62.3,54.5,28.51,SSE,157,4.0,4.0,75,0.00,,,0.00,Rainwise IP-100,2013-05-08 10:32:00,
2013-05-08 05:37:00,62.1,54.0,28.50,SE,135,2.6,4.7,75,0.00,,,0.00,Rainwise IP-100,2013-05-08 10:37:00,
2013-05-08 05:42:00,61.8,54.5,28.50,SSE,157,3.5,4.4,76,0.00,,,0.00,Rainwise IP-100,2013-05-08 10:42:00,
2013-05-08 05:47:00,61.7,54.0,28.50,SE,135,1.9,4.2,76,0.00,,,0.00,Rainwise IP-100,2013-05-08 10:47:00,
2013-05-08 05:52:00,61.6,54.0,28.50,ESE,112,1.9,4.7,77,0.00,,,0.00,Rainwise IP-100,2013-05-08 10:52:00,
2013-05-08 05:57:00,61.5,54.0,28.51,ESE,112,2.6,3.0,77,0.00,,,0.00,Rainwise IP-100,2013-05-08 10:57:00,
2013-05-08 06:02:00,61.3,54.0,28.51,ESE,112,1.4,4.0,77,0.00,,,0.00,Rainwise IP-100,2013-05-08 11:02:00,
2013-05-08 06:08:00,61.1,54.0,28.51,SE,135,0.0,2.8,77,0.00,,,0.00,Rainwise IP-100,2013-05-08 11:08:00,
2013-05-08 06:13:00,60.9,54.0,28.51,SE,135,1.6,3.5,78,0.00,,,0.00,Rainwise IP-100,2013-05-08 11:13:00,
2013-05-08 06:18:00,60.8,54.0,28.51,SE,135,1.4,4.4,78,0.00,,,0.00,Rainwise IP-100,2013-05-08 11:18:00,
2013-05-08 06:23:00,60.7,54.0,28.51,SE,135,1.9,3.7,79,0.00,,,0.00,Rainwise IP-100,2013-05-08 11:23:00,
2013-05-08 06:28:00,60.4,54.0,28.51,SE,135,2.1,3.3,79,0.00,,,0.00,Rainwise IP-100,2013-05-08 11:28:00,
2013-05-08 06:33:00,60.3,54.0,28.51,SE,135,2.1,3.3,80,0.00,,,0.00,Rainwise IP-100,2013-05-08 11:33:00,
2013-05-08 06:38:00,60.2,54.0,28.51,ESE,112,2.6,4.7,81,0.00,,,0.00,Rainwise IP-100,2013-05-08 11:38:00,
2013-05-08 06:43:00,60.2,54.0,28.51,ESE,112,3.3,5.8,81,0.00,,,0.00,Rainwise IP-100,2013-05-08 11:43:00,
2013-05-08 06:48:00,60.2,54.0,28.51,SE,135,2.8,4.9,81,0.00,,,0.00,Rainwise IP-100,2013-05-08 11:48:00,
2013-05-08 06:53:00,60.1,54.0,28.52,SSE,157,2.1,5.1,81,0.00,,,0.00,Rainwise IP-100,2013-05-08 11:53:00,
2013-05-08 06:58:00,60.1,54.5,28.52,SE,135,3.5,4.4,82,0.00,,,0.00,Rainwise IP-100,2013-05-08 11:58:00,
2013-05-08 07:03:00,60.0,54.5,28.52,SE,135,2.8,4.9,83,0.00,,,0.00,Rainwise IP-100,2013-05-08 12:03:00,
2013-05-08 07:08:00,59.9,54.5,28.52,SSE,157,3.3,4.7,83,0.00,,,0.00,Rainwise IP-100,2013-05-08 12:08:00,
2013-05-08 07:13:00,59.9,55.0,28.52,SSE,157,4.0,4.9,84,0.00,,,0.00,Rainwise IP-100,2013-05-08 12:13:00,
2013-05-08 07:18:00,60.0,55.0,28.52,SSE,157,3.5,4.7,84,0.00,,,0.00,Rainwise IP-100,2013-05-08 12:18:00,
2013-05-08 07:23:00,60.2,55.0,28.52,SSE,157,2.1,6.1,85,0.00,,,0.00,Rainwise IP-100,2013-05-08 12:23:00,
2013-05-08 07:28:00,60.5,56.0,28.53,SSE,157,2.1,7.5,85,0.00,,,0.00,Rainwise IP-100,2013-05-08 12:28:00,
2013-05-08 07:33:00,60.8,56.0,28.52,SE,135,4.2,6.5,84,0.00,,,0.00,Rainwise IP-100,2013-05-08 12:33:00,
2013-05-08 07:38:00,61.1,56.0,28.53,South,180,2.3,5.8,84,0.00,,,0.00,Rainwise IP-100,2013-05-08 12:38:00,
2013-05-08 07:43:00,61.3,56.5,28.54,SSE,157,4.2,8.4,84,0.00,,,0.00,Rainwise IP-100,2013-05-08 12:43:00,
2013-05-08 07:48:00,61.6,56.5,28.54,SSE,157,3.7,7.2,84,0.00,,,0.00,Rainwise IP-100,2013-05-08 12:48:00,
2013-05-08 07:53:00,62.0,57.0,28.53,South,180,6.1,7.0,84,0.00,,,0.00,Rainwise IP-100,2013-05-08 12:53:00,
2013-05-08 07:58:00,62.5,57.0,28.54,SSE,157,4.9,8.2,83,0.00,,,0.00,Rainwise IP-100,2013-05-08 12:58:00,
2013-05-08 08:03:00,63.0,57.5,28.54,SSE,157,5.4,10.5,83,0.00,,,0.00,Rainwise IP-100,2013-05-08 13:03:00,
2013-05-08 08:08:00,63.4,58.0,28.54,SSE,157,5.6,9.8,83,0.00,,,0.00,Rainwise IP-100,2013-05-08 13:08:00,
2013-05-08 08:13:00,63.8,58.0,28.53,ESE,112,6.1,10.7,82,0.00,,,0.00,Rainwise IP-100,2013-05-08 13:13:00,
2013-05-08 08:18:00,64.1,58.0,28.53,SSW,202,3.7,12.8,82,0.00,,,0.00,Rainwise IP-100,2013-05-08 13:18:00,
2013-05-08 08:23:00,64.3,59.0,28.53,SSW,202,5.6,11.4,82,0.00,,,0.00,Rainwise IP-100,2013-05-08 13:23:00,
2013-05-08 08:28:00,64.7,58.0,28.53,SSW,202,7.5,11.4,81,0.00,,,0.00,Rainwise IP-100,2013-05-08 13:28:00,
2013-05-08 08:33:00,65.0,59.0,28.53,SE,135,5.4,9.8,81,0.00,,,0.00,Rainwise IP-100,2013-05-08 13:33:00,
2013-05-08 08:38:00,65.4,59.0,28.53,SSE,157,6.1,11.9,80,0.00,,,0.00,Rainwise IP-100,2013-05-08 13:38:00,
2013-05-08 08:43:00,66.0,59.5,28.54,SW,225,5.8,13.3,80,0.00,,,0.00,Rainwise IP-100,2013-05-08 13:43:00,
2013-05-08 08:48:00,66.4,59.5,28.53,SSW,202,3.3,11.4,79,0.00,,,0.00,Rainwise IP-100,2013-05-08 13:48:00,
2013-05-08 08:53:00,66.8,60.0,28.54,SSE,157,8.2,13.8,79,0.00,,,0.00,Rainwise IP-100,2013-05-08 13:53:00,
2013-05-08 08:58:00,67.2,60.5,28.53,SSW,202,8.4,11.7,79,0.00,,,0.00,Rainwise IP-100,2013-05-08 13:58:00,
2013-05-08 09:03:00,67.6,60.5,28.53,ESE,112,10.3,11.7,78,0.00,,,0.00,Rainwise IP-100,2013-05-08 14:03:00,
2013-05-08 09:08:00,68.0,60.5,28.54,SE,135,7.0,16.8,77,0.00,,,0.00,Rainwise IP-100,2013-05-08 14:08:00,
2013-05-08 09:13:00,68.5,61.0,28.54,SSE,157,8.9,11.2,77,0.00,,,0.00,Rainwise IP-100,2013-05-08 14:13:00,
2013-05-08 09:18:00,68.9,61.5,28.54,SSE,157,4.7,14.2,77,0.00,,,0.00,Rainwise IP-100,2013-05-08 14:18:00,
2013-05-08 09:23:00,69.1,61.0,28.53,SSW,202,5.6,13.5,76,0.00,,,0.00,Rainwise IP-100,2013-05-08 14:23:00,
2013-05-08 09:28:00,69.4,61.5,28.53,SSE,157,6.5,13.5,76,0.00,,,0.00,Rainwise IP-100,2013-05-08 14:28:00,
2013-05-08 09:33:00,69.8,61.5,28.53,South,180,3.5,11.9,75,0.00,,,0.00,Rainwise IP-100,2013-05-08 14:33:00,
2013-05-08 09:38:00,70.3,62.0,28.53,SE,135,9.8,12.4,75,0.00,,,0.00,Rainwise IP-100,2013-05-08 14:38:00,
2013-05-08 09:43:00,70.5,62.0,28.53,SSE,157,11.0,13.5,74,0.00,,,0.00,Rainwise IP-100,2013-05-08 14:43:00,
2013-05-08 09:48:00,70.5,62.0,28.53,SE,135,7.7,14.2,74,0.00,,,0.00,Rainwise IP-100,2013-05-08 14:48:00,
2013-05-08 09:53:00,70.7,62.0,28.53,South,180,9.1,12.6,74,0.00,,,0.00,Rainwise IP-100,2013-05-08 14:53:00,
2013-05-08 09:58:00,70.9,62.0,28.53,SSE,157,2.8,12.4,74,0.00,,,0.00,Rainwise IP-100,2013-05-08 14:58:00,
2013-05-08 10:03:00,71.2,62.0,28.53,SSE,157,7.9,14.7,73,0.00,,,0.00,Rainwise IP-100,2013-05-08 15:03:00,
2013-05-08 10:08:00,71.4,62.0,28.54,SE,135,4.7,13.3,73,0.00,,,0.00,Rainwise IP-100,2013-05-08 15:08:00,
2013-05-08 10:13:00,71.9,63.0,28.54,South,180,8.2,14.9,73,0.00,,,0.00,Rainwise IP-100,2013-05-08 15:13:00,
2013-05-08 10:18:00,72.6,63.0,28.54,SSE,157,14.7,15.2,72,0.00,,,0.00,Rainwise IP-100,2013-05-08 15:18:00,
2013-05-08 10:23:00,72.6,62.5,28.53,SW,225,5.6,16.3,70,0.00,,,0.00,Rainwise IP-100,2013-05-08 15:23:00,
2013-05-08 10:28:00,72.4,62.0,28.54,SSE,157,6.3,12.6,70,0.00,,,0.00,Rainwise IP-100,2013-05-08 15:28:00,
2013-05-08 10:33:00,72.6,63.0,28.54,South,180,10.7,17.0,71,0.00,,,0.00,Rainwise IP-100,2013-05-08 15:33:00,
2013-05-08 10:38:00,72.8,62.5,28.54,SE,135,5.1,17.5,70,0.00,,,0.00,Rainwise IP-100,2013-05-08 15:38:00,
2013-05-08 10:43:00,72.8,62.5,28.54,SSE,157,6.8,11.9,70,0.00,,,0.00,Rainwise IP-100,2013-05-08 15:43:00,
2013-05-08 10:48:00,72.9,62.5,28.54,SSE,157,7.0,12.6,70,0.00,,,0.00,Rainwise IP-100,2013-05-08 15:48:00,
2013-05-08 10:53:00,73.3,62.5,28.54,South,180,6.5,13.3,69,0.00,,,0.00,Rainwise IP-100,2013-05-08 15:53:00,
2013-05-08 10:58:00,73.5,63.0,28.53,SSE,157,5.8,16.1,69,0.00,,,0.00,Rainwise IP-100,2013-05-08 15:58:00,
2013-05-08 11:03:00,73.4,62.5,28.54,South,180,7.5,17.5,69,0.00,,,0.00,Rainwise IP-100,2013-05-08 16:03:00,
2013-05-08 11:08:00,73.4,62.5,28.54,SSE,157,14.5,14.9,69,0.00,,,0.00,Rainwise IP-100,2013-05-08 16:08:00,
2013-05-08 11:13:00,73.4,62.5,28.54,SSW,202,5.1,15.2,69,0.00,,,0.00,Rainwise IP-100,2013-05-08 16:13:00,
2013-05-08 11:18:00,73.4,62.5,28.54,SSE,157,11.9,13.8,69,0.00,,,0.00,Rainwise IP-100,2013-05-08 16:18:00,
2013-05-08 11:23:00,73.4,62.5,28.54,SSE,157,10.3,16.3,69,0.00,,,0.00,Rainwise IP-100,2013-05-08 16:23:00,
2013-05-08 11:28:00,73.3,62.5,28.54,SSE,157,9.8,16.6,69,0.00,,,0.00,Rainwise IP-100,2013-05-08 16:28:00,
2013-05-08 11:33:00,73.4,62.5,28.54,SSE,157,13.1,14.2,69,0.00,,,0.00,Rainwise IP-100,2013-05-08 16:33:00,
2013-05-08 11:38:00,73.5,63.0,28.53,SE,135,14.7,15.6,69,0.00,,,0.00,Rainwise IP-100,2013-05-08 16:38:00,
2013-05-08 11:43:00,73.6,63.0,28.54,South,180,9.8,16.1,69,0.00,,,0.00,Rainwise IP-100,2013-05-08 16:43:00,
2013-05-08 11:48:00,73.8,62.5,28.54,SSE,157,7.5,13.5,68,0.00,,,0.00,Rainwise IP-100,2013-05-08 16:48:00,
2013-05-08 11:53:00,74.0,63.0,28.54,SSE,157,9.3,14.9,68,0.00,,,0.00,Rainwise IP-100,2013-05-08 16:53:00,
2013-05-08 11:58:00,73.9,63.0,28.54,South,180,2.6,13.5,68,0.00,,,0.00,Rainwise IP-100,2013-05-08 16:58:00,
2013-05-08 12:03:00,73.6,62.5,28.54,SSW,202,5.8,13.3,68,0.00,,,0.00,Rainwise IP-100,2013-05-08 17:03:00,
2013-05-08 12:08:00,73.5,62.5,28.54,SSE,157,6.1,14.7,68,0.00,,,0.00,Rainwise IP-100,2013-05-08 17:08:00,
2013-05-08 12:13:00,73.2,62.5,28.55,SSW,202,3.7,14.5,69,0.00,,,0.00,Rainwise IP-100,2013-05-08 17:13:00,
2013-05-08 12:18:00,73.3,62.5,28.55,SSW,202,6.5,13.3,69,0.00,,,0.00,Rainwise IP-100,2013-05-08 17:18:00,
2013-05-08 12:23:00,73.3,62.5,28.55,SE,135,7.2,14.7,69,0.00,,,0.00,Rainwise IP-100,2013-05-08 17:23:00,
2013-05-08 12:28:00,72.8,62.0,28.54,SE,135,9.1,14.7,69,0.00,,,0.00,Rainwise IP-100,2013-05-08 17:28:00,
2013-05-08 12:33:00,72.6,62.5,28.54,SSE,157,2.8,10.0,70,0.00,,,0.00,Rainwise IP-100,2013-05-08 17:33:00,
2013-05-08 12:38:00,72.4,62.5,28.54,SSE,157,4.4,11.9,71,0.00,,,0.00,Rainwise IP-100,2013-05-08 17:38:00,
2013-05-08 12:43:00,72.3,62.5,28.54,SSE,157,7.7,13.1,71,0.00,,,0.00,Rainwise IP-100,2013-05-08 17:43:00,
2013-05-08 12:48:00,72.2,62.5,28.55,SSE,157,5.1,14.0,71,0.00,,,0.00,Rainwise IP-100,2013-05-08 17:48:00,
2013-05-08 12:53:00,72.1,62.0,28.54,SSE,157,7.5,12.4,71,0.00,,,0.00,Rainwise IP-100,2013-05-08 17:53:00,
2013-05-08 12:58:00,72.0,62.0,28.54,SE,135,6.3,10.0,71,0.00,,,0.00,Rainwise IP-100,2013-05-08 17:58:00,
2013-05-08 13:03:00,72.0,62.0,28.54,SE,135,7.2,8.9,71,0.00,,,0.00,Rainwise IP-100,2013-05-08 18:03:00,
2013-05-08 13:08:00,72.2,62.5,28.54,SSE,157,11.7,13.3,71,0.00,,,0.00,Rainwise IP-100,2013-05-08 18:08:00,
2013-05-08 13:13:00,72.5,63.0,28.54,SW,225,6.8,15.2,71,0.00,,,0.00,Rainwise IP-100,2013-05-08 18:13:00,
2013-05-08 13:18:00,72.6,62.5,28.54,SSW,202,8.2,15.2,70,0.00,,,0.00,Rainwise IP-100,2013-05-08 18:18:00,
2013-05-08 13:23:00,72.5,62.5,28.54,South,180,4.9,16.1,70,0.00,,,0.00,Rainwise IP-100,2013-05-08 18:23:00,
2013-05-08 13:28:00,72.5,62.5,28.54,SSW,202,6.3,10.5,70,0.00,,,0.00,Rainwise IP-100,2013-05-08 18:28:00,
2013-05-08 13:33:00,72.6,62.5,28.54,SSE,157,3.5,10.3,70,0.00,,,0.00,Rainwise IP-100,2013-05-08 18:33:00,
2013-05-08 13:38:00,72.5,62.5,28.54,ESE,112,5.6,11.2,70,0.00,,,0.00,Rainwise IP-100,2013-05-08 18:38:00,
2013-05-08 13:43:00,72.6,62.5,28.54,SSW,202,9.1,15.6,70,0.00,,,0.00,Rainwise IP-100,2013-05-08 18:43:00,
2013-05-08 13:48:00,72.8,62.5,28.54,SSW,202,2.8,15.2,70,0.00,,,0.00,Rainwise IP-100,2013-05-08 18:48:00,
2013-05-08 13:53:00,73.1,62.5,28.53,ENE,67,5.8,11.2,69,0.00,,,0.00,Rainwise IP-100,2013-05-08 18:53:00,
2013-05-08 13:58:00,73.4,62.5,28.53,SW,225,7.9,12.1,69,0.00,,,0.00,Rainwise IP-100,2013-05-08 18:58:00,
2013-05-08 14:03:00,73.4,62.0,28.53,SSW,202,3.7,14.0,68,0.00,,,0.00,Rainwise IP-100,2013-05-08 19:03:00,
2013-05-08 14:08:00,73.4,62.0,28.53,ESE,112,10.3,13.1,68,0.00,,,0.00,Rainwise IP-100,2013-05-08 19:08:00,
2013-05-08 14:13:00,73.5,63.0,28.53,South,180,6.3,11.9,69,0.00,,,0.00,Rainwise IP-100,2013-05-08 19:13:00,
2013-05-08 14:18:00,73.6,63.0,28.52,SSE,157,5.6,15.2,69,0.00,,,0.00,Rainwise IP-100,2013-05-08 19:18:00,
2013-05-08 14:23:00,73.7,62.5,28.53,SSW,202,9.3,12.1,68,0.00,,,0.00,Rainwise IP-100,2013-05-08 19:23:00,
2013-05-08 14:28:00,73.7,62.0,28.53,SSE,157,7.5,12.8,67,0.00,,,0.00,Rainwise IP-100,2013-05-08 19:28:00,
2013-05-08 14:33:00,73.6,62.0,28.52,South,180,4.4,16.1,67,0.00,,,0.00,Rainwise IP-100,2013-05-08 19:33:00,
2013-05-08 14:38:00,73.5,62.5,28.53,SSE,157,9.3,14.5,68,0.00,,,0.00,Rainwise IP-100,2013-05-08 19:38:00,
2013-05-08 14:43:00,73.4,62.0,28.52,SSE,157,4.7,11.4,68,0.00,,,0.00,Rainwise IP-100,2013-05-08 19:43:00,
2013-05-08 14:48:00,73.4,62.0,28.52,SSE,157,10.0,14.7,68,0.00,,,0.00,Rainwise IP-100,2013-05-08 19:48:00,
2013-05-08 14:53:00,73.3,62.0,28.52,SSW,202,4.7,13.1,68,0.00,,,0.00,Rainwise IP-100,2013-05-08 19:53:00,
2013-05-08 14:58:00,73.4,62.0,28.52,SSE,157,8.9,13.8,68,0.00,,,0.00,Rainwise IP-100,2013-05-08 19:58:00,
2013-05-08 15:03:00,74.0,63.0,28.52,South,180,7.2,13.8,68,0.00,,,0.00,Rainwise IP-100,2013-05-08 20:03:00,
2013-05-08 15:08:00,74.6,63.0,28.51,SSW,202,7.9,15.9,67,0.00,,,0.00,Rainwise IP-100,2013-05-08 20:08:00,
2013-05-08 15:13:00,75.1,63.0,28.51,SSE,157,5.8,11.7,66,0.00,,,0.00,Rainwise IP-100,2013-05-08 20:13:00,
2013-05-08 15:18:00,75.2,63.0,28.51,SSE,157,7.7,11.7,66,0.00,,,0.00,Rainwise IP-100,2013-05-08 20:18:00,
2013-05-08 15:23:00,74.8,62.5,28.51,SSE,157,8.2,17.3,66,0.00,,,0.00,Rainwise IP-100,2013-05-08 20:23:00,
2013-05-08 15:28:00,74.4,62.5,28.50,SSE,157,9.1,14.5,66,0.00,,,0.00,Rainwise IP-100,2013-05-08 20:28:00,
2013-05-08 15:33:00,74.5,62.5,28.50,SE,135,8.4,12.4,66,0.00,,,0.00,Rainwise IP-100,2013-05-08 20:33:00,
2013-05-08 15:38:00,75.4,63.5,28.49,SSW,202,5.1,13.5,66,0.00,,,0.00,Rainwise IP-100,2013-05-08 20:38:00,
2013-05-08 15:43:00,76.0,63.5,28.50,SSW,202,5.8,14.0,65,0.00,,,0.00,Rainwise IP-100,2013-05-08 20:43:00,
2013-05-08 15:48:00,76.0,63.0,28.50,SSW,202,4.2,10.7,64,0.00,,,0.00,Rainwise IP-100,2013-05-08 20:48:00,
2013-05-08 15:53:00,76.1,63.0,28.49,SSE,157,6.1,11.9,64,0.00,,,0.00,Rainwise IP-100,2013-05-08 20:53:00,
2013-05-08 15:58:00,76.3,63.0,28.49,SSW,202,5.1,15.2,64,0.00,,,0.00,Rainwise IP-100,2013-05-08 20:58:00,
2013-05-08 16:03:00,76.0,63.0,28.49,SW,225,3.5,12.8,64,0.00,,,0.00,Rainwise IP-100,2013-05-08 21:03:00,
2013-05-08 16:08:00,75.6,62.5,28.49,South,180,10.7,13.1,64,0.00,,,0.00,Rainwise IP-100,2013-05-08 21:08:00,
2013-05-08 16:13:00,75.4,62.5,28.49,SSW,202,4.9,12.4,64,0.00,,,0.00,Rainwise IP-100,2013-05-08 21:13:00,
2013-05-08 16:18:00,75.3,63.0,28.49,SSW,202,12.1,13.3,65,0.00,,,0.00,Rainwise IP-100,2013-05-08 21:18:00,
2013-05-08 16:23:00,75.1,62.5,28.49,SW,225,6.3,15.2,65,0.00,,,0.00,Rainwise IP-100,2013-05-08 21:23:00,
2013-05-08 16:28:00,75.0,62.5,28.49,SSE,157,5.4,11.0,65,0.00,,,0.00,Rainwise IP-100,2013-05-08 21:28:00,
2013-05-08 16:33:00,74.9,63.0,28.50,South,180,7.0,13.3,66,0.00,,,0.00,Rainwise IP-100,2013-05-08 21:33:00,
2013-05-08 16:38:00,74.8,62.5,28.49,SE,135,8.9,15.9,66,0.00,,,0.00,Rainwise IP-100,2013-05-08 21:38:00,
2013-05-08 16:43:00,74.8,62.5,28.49,SSE,157,8.6,12.6,66,0.00,,,0.00,Rainwise IP-100,2013-05-08 21:43:00,
2013-05-08 16:48:00,74.9,63.0,28.49,ESE,112,6.5,13.1,66,0.00,,,0.00,Rainwise IP-100,2013-05-08 21:48:00,
2013-05-08 16:53:00,74.9,63.0,28.49,SSW,202,7.5,16.1,66,0.00,,,0.00,Rainwise IP-100,2013-05-08 21:53:00,
2013-05-08 16:58:00,74.8,62.5,28.49,SSE,157,5.4,11.0,66,0.00,,,0.00,Rainwise IP-100,2013-05-08 21:58:00,
2013-05-08 17:03:00,74.8,63.0,28.48,SW,225,3.3,15.6,67,0.00,,,0.00,Rainwise IP-100,2013-05-08 22:03:00,
2013-05-08 17:08:00,74.8,62.5,28.48,SSE,157,6.5,10.7,66,0.00,,,0.00,Rainwise IP-100,2013-05-08 22:08:00,
2013-05-08 17:13:00,74.9,63.0,28.48,SSW,202,6.8,11.7,66,0.00,,,0.00,Rainwise IP-100,2013-05-08 22:13:00,
2013-05-08 17:18:00,75.0,63.0,28.48,SSW,202,4.9,10.0,66,0.00,,,0.00,Rainwise IP-100,2013-05-08 22:18:00,
2013-05-08 17:23:00,75.4,63.5,28.48,South,180,6.5,15.4,66,0.00,,,0.00,Rainwise IP-100,2013-05-08 22:23:00,
2013-05-08 17:28:00,75.5,63.5,28.48,SSE,157,7.9,14.5,66,0.00,,,0.00,Rainwise IP-100,2013-05-08 22:28:00,
2013-05-08 17:33:00,75.3,63.5,28.47,SE,135,4.4,13.1,66,0.00,,,0.00,Rainwise IP-100,2013-05-08 22:33:00,
2013-05-08 17:38:00,75.2,63.0,28.47,SSE,157,10.5,18.2,66,0.00,,,0.00,Rainwise IP-100,2013-05-08 22:38:00,
2013-05-08 17:43:00,75.1,63.0,28.47,SSE,157,5.1,18.2,66,0.00,,,0.00,Rainwise IP-100,2013-05-08 22:43:00,
2013-05-08 17:48:00,75.1,63.0,28.47,SSW,202,9.1,14.7,66,0.00,,,0.00,Rainwise IP-100,2013-05-08 22:48:00,
2013-05-08 17:53:00,75.2,63.0,28.47,SSE,157,5.4,14.9,66,0.00,,,0.00,Rainwise IP-100,2013-05-08 22:53:00,
2013-05-08 17:58:00,75.2,63.0,28.46,South,180,5.1,11.9,66,0.00,,,0.00,Rainwise IP-100,2013-05-08 22:58:00,
2013-05-08 18:03:00,75.2,63.0,28.45,SSE,157,13.1,13.8,66,0.00,,,0.00,Rainwise IP-100,2013-05-08 23:03:00,
2013-05-08 18:08:00,75.2,63.0,28.45,ESE,112,8.6,14.0,66,0.00,,,0.00,Rainwise IP-100,2013-05-08 23:08:00,
2013-05-08 18:13:00,75.2,63.0,28.45,SE,135,13.1,13.5,66,0.00,,,0.00,Rainwise IP-100,2013-05-08 23:13:00,
2013-05-08 18:18:00,75.1,63.0,28.45,SSE,157,14.2,14.2,66,0.00,,,0.00,Rainwise IP-100,2013-05-08 23:18:00,
2013-05-08 18:23:00,75.0,63.0,28.45,ESE,112,7.7,14.2,66,0.00,,,0.00,Rainwise IP-100,2013-05-08 23:23:00,
2013-05-08 18:28:00,74.9,63.5,28.45,SSW,202,9.6,13.1,67,0.00,,,0.00,Rainwise IP-100,2013-05-08 23:28:00,
2013-05-08 18:33:00,74.8,63.0,28.45,SE,135,7.0,12.8,67,0.00,,,0.00,Rainwise IP-100,2013-05-08 23:33:00,
2013-05-08 18:38:00,74.5,63.0,28.44,SSW,202,9.8,12.1,67,0.00,,,0.00,Rainwise IP-100,2013-05-08 23:38:00,
2013-05-08 18:43:00,74.4,63.0,28.44,SSE,157,9.1,13.3,67,0.00,,,0.00,Rainwise IP-100,2013-05-08 23:43:00,
2013-05-08 18:48:00,74.6,63.0,28.44,SSE,157,7.5,9.8,67,0.00,,,0.00,Rainwise IP-100,2013-05-08 23:48:00,
2013-05-08 18:53:00,74.7,63.0,28.44,SSE,157,4.4,11.0,67,0.00,,,0.00,Rainwise IP-100,2013-05-08 23:53:00,
2013-05-08 18:58:00,74.8,63.0,28.44,SSE,157,9.8,14.9,67,0.00,,,0.00,Rainwise IP-100,2013-05-08 23:58:00,
2013-05-08 19:03:00,74.7,63.0,28.44,SE,135,7.5,12.1,67,0.00,,,0.00,Rainwise IP-100,2013-05-09 00:03:00,
2013-05-08 19:08:00,74.7,63.0,28.44,SE,135,6.1,10.5,67,0.00,,,0.00,Rainwise IP-100,2013-05-09 00:08:00,
2013-05-08 19:13:00,74.7,63.0,28.44,SSE,157,5.4,11.4,67,0.00,,,0.00,Rainwise IP-100,2013-05-09 00:13:00,
2013-05-08 19:18:00,74.5,63.0,28.44,SSE,157,7.0,11.7,67,0.00,,,0.00,Rainwise IP-100,2013-05-09 00:18:00,
2013-05-08 19:23:00,74.4,63.0,28.44,SSE,157,4.4,13.1,67,0.00,,,0.00,Rainwise IP-100,2013-05-09 00:23:00,
2013-05-08 19:28:00,74.3,63.0,28.44,South,180,7.9,11.0,67,0.00,,,0.00,Rainwise IP-100,2013-05-09 00:28:00,
2013-05-08 19:33:00,74.2,63.0,28.45,South,180,4.7,9.3,68,0.00,,,0.00,Rainwise IP-100,2013-05-09 00:33:00,
2013-05-08 19:38:00,74.2,63.0,28.45,SSE,157,4.2,13.3,68,0.00,,,0.00,Rainwise IP-100,2013-05-09 00:38:00,
2013-05-08 19:43:00,74.1,63.0,28.45,ESE,112,5.8,9.6,68,0.00,,,0.00,Rainwise IP-100,2013-05-09 00:43:00,
2013-05-08 19:48:00,74.1,63.0,28.45,SSE,157,9.6,11.7,68,0.00,,,0.00,Rainwise IP-100,2013-05-09 00:48:00,
2013-05-08 19:53:00,74.1,63.0,28.45,SSE,157,7.5,11.7,68,0.00,,,0.00,Rainwise IP-100,2013-05-09 00:53:00,
2013-05-08 19:58:00,74.0,63.0,28.45,SSE,157,3.3,8.6,68,0.00,,,0.00,Rainwise IP-100,2013-05-09 00:58:00,
2013-05-08 20:03:00,73.9,63.0,28.45,SSE,157,3.7,11.0,68,0.00,,,0.00,Rainwise IP-100,2013-05-09 01:03:00,
2013-05-08 20:08:00,73.8,62.5,28.46,SSE,157,4.0,9.6,68,0.00,,,0.00,Rainwise IP-100,2013-05-09 01:08:00,
2013-05-08 20:13:00,73.7,62.5,28.45,SSW,202,4.0,7.9,68,0.00,,,0.00,Rainwise IP-100,2013-05-09 01:13:00,
2013-05-08 20:18:00,73.6,63.0,28.46,South,180,3.3,7.7,69,0.00,,,0.00,Rainwise IP-100,2013-05-09 01:18:00,
2013-05-08 20:23:00,73.4,62.5,28.46,South,180,5.1,10.0,69,0.00,,,0.00,Rainwise IP-100,2013-05-09 01:23:00,
2013-05-08 20:28:00,73.2,62.5,28.46,SE,135,2.1,5.8,69,0.00,,,0.00,Rainwise IP-100,2013-05-09 01:28:00,
2013-05-08 20:33:00,72.9,62.5,28.46,SE,135,1.4,5.8,70,0.00,,,0.00,Rainwise IP-100,2013-05-09 01:33:00,
2013-05-08 20:38:00,72.7,62.5,28.47,SE,135,1.6,4.4,70,0.00,,,0.00,Rainwise IP-100,2013-05-09 01:38:00,
2013-05-08 20:43:00,72.6,63.0,28.47,ESE,112,1.9,3.5,71,0.00,,,0.00,Rainwise IP-100,2013-05-09 01:43:00,
2013-05-08 20:48:00,72.5,63.0,28.47,ESE,112,1.2,3.3,71,0.00,,,0.00,Rainwise IP-100,2013-05-09 01:48:00,
2013-05-08 20:53:00,72.4,62.5,28.47,ESE,112,0.0,4.0,71,0.00,,,0.00,Rainwise IP-100,2013-05-09 01:53:00,
2013-05-08 20:58:00,72.3,63.0,28.47,SE,135,3.3,4.0,72,0.00,,,0.00,Rainwise IP-100,2013-05-09 01:58:00,
2013-05-08 21:03:00,72.1,62.5,28.47,SE,135,2.8,4.0,72,0.00,,,0.00,Rainwise IP-100,2013-05-09 02:03:00,
2013-05-08 21:08:00,71.8,62.0,28.46,ESE,112,2.1,3.7,72,0.00,,,0.00,Rainwise IP-100,2013-05-09 02:08:00,
2013-05-08 21:13:00,71.6,62.5,28.47,ENE,67,1.6,4.7,73,0.00,,,0.00,Rainwise IP-100,2013-05-09 02:13:00,
2013-05-08 21:18:00,71.4,62.0,28.46,SE,135,2.6,3.5,73,0.00,,,0.00,Rainwise IP-100,2013-05-09 02:18:00,
2013-05-08 21:23:00,71.3,62.0,28.47,SE,135,1.2,3.3,73,0.00,,,0.00,Rainwise IP-100,2013-05-09 02:23:00,
2013-05-08 21:28:00,71.2,62.5,28.47,SE,135,2.1,3.3,74,0.00,,,0.00,Rainwise IP-100,2013-05-09 02:28:00,
2013-05-08 21:33:00,70.9,62.0,28.46,ESE,112,1.2,3.7,74,0.00,,,0.00,Rainwise IP-100,2013-05-09 02:33:00,
2013-05-08 21:38:00,70.7,62.0,28.46,East,90,2.8,5.4,74,0.00,,,0.00,Rainwise IP-100,2013-05-09 02:38:00,
2013-05-08 21:43:00,70.6,62.0,28.46,ESE,112,3.7,4.7,75,0.00,,,0.00,Rainwise IP-100,2013-05-09 02:43:00,
2013-05-08 21:48:00,70.6,62.0,28.46,East,90,1.2,5.6,75,0.00,,,0.00,Rainwise IP-100,2013-05-09 02:48:00,
2013-05-08 21:53:00,70.6,62.0,28.46,ESE,112,2.3,4.9,75,0.00,,,0.00,Rainwise IP-100,2013-05-09 02:53:00,
2013-05-08 21:58:00,70.6,62.0,28.46,SE,135,3.0,4.4,75,0.00,,,0.00,Rainwise IP-100,2013-05-09 02:58:00,
2013-05-08 22:03:00,70.5,62.0,28.46,SE,135,2.3,4.9,75,0.00,,,0.00,Rainwise IP-100,2013-05-09 03:03:00,
2013-05-08 22:08:00,70.4,62.0,28.46,SSE,157,5.6,5.6,75,0.00,,,0.00,Rainwise IP-100,2013-05-09 03:08:00,
2013-05-08 22:13:00,70.3,62.0,28.46,SE,135,2.8,5.6,75,0.00,,,0.00,Rainwise IP-100,2013-05-09 03:13:00,
2013-05-08 22:18:00,70.3,62.0,28.46,SSE,157,1.6,5.1,75,0.00,,,0.00,Rainwise IP-100,2013-05-09 03:18:00,
2013-05-08 22:23:00,70.3,62.0,28.47,ESE,112,1.6,5.6,75,0.00,,,0.00,Rainwise IP-100,2013-05-09 03:23:00,
2013-05-08 22:28:00,70.3,62.0,28.47,SE,135,1.6,4.7,75,0.00,,,0.00,Rainwise IP-100,2013-05-09 03:28:00,
2013-05-08 22:33:00,70.2,62.0,28.48,SSE,157,3.3,5.1,75,0.00,,,0.00,Rainwise IP-100,2013-05-09 03:33:00,
2013-05-08 22:38:00,70.2,62.0,28.47,SE,135,2.1,6.5,75,0.00,,,0.00,Rainwise IP-100,2013-05-09 03:38:00,
2013-05-08 22:43:00,70.2,62.0,28.47,SE,135,1.9,6.1,75,0.00,,,0.00,Rainwise IP-100,2013-05-09 03:43:00,
2013-05-08 22:48:00,70.2,62.0,28.48,SSE,157,1.2,5.8,75,0.00,,,0.00,Rainwise IP-100,2013-05-09 03:48:00,
2013-05-08 22:53:00,70.1,62.0,28.47,SE,135,2.3,5.4,75,0.00,,,0.00,Rainwise IP-100,2013-05-09 03:53:00,
2013-05-08 22:58:00,70.0,62.0,28.47,SSE,157,4.7,5.4,75,0.00,,,0.00,Rainwise IP-100,2013-05-09 03:58:00,
2013-05-08 23:01:00,70.0,62.0,28.47,SSE,157,5.6,6.3,75,0.00,,,0.00,Rainwise IP-100,2013-05-09 04:01:00,
2013-05-08 23:06:00,70.0,62.0,28.46,SSE,157,3.0,7.0,75,0.00,,,0.00,Rainwise IP-100,2013-05-09 04:06:00,
2013-05-08 23:11:00,70.0,62.0,28.46,SSE,157,7.7,9.6,75,0.00,,,0.00,Rainwise IP-100,2013-05-09 04:11:00,
2013-05-08 23:16:00,70.0,62.0,28.47,South,180,4.0,9.1,75,0.00,,,0.00,Rainwise IP-100,2013-05-09 04:16:00,
2013-05-08 23:21:00,70.0,62.0,28.46,SSE,157,4.2,6.1,75,0.00,,,0.00,Rainwise IP-100,2013-05-09 04:21:00,
2013-05-08 23:26:00,69.9,62.0,28.46,SE,135,3.7,7.9,75,0.00,,,0.00,Rainwise IP-100,2013-05-09 04:26:00,
2013-05-08 23:31:00,69.8,61.5,28.46,SSE,157,5.6,7.5,75,0.00,,,0.00,Rainwise IP-100,2013-05-09 04:31:00,
2013-05-08 23:36:00,69.7,61.5,28.46,SSE,157,2.6,7.9,75,0.00,,,0.00,Rainwise IP-100,2013-05-09 04:36:00,
2013-05-08 23:41:00,69.7,61.5,28.46,SSE,157,4.4,7.9,75,0.00,,,0.00,Rainwise IP-100,2013-05-09 04:41:00,
2013-05-08 23:46:00,69.8,61.5,28.47,SSE,157,6.3,7.5,75,0.00,,,0.00,Rainwise IP-100,2013-05-09 04:46:00,
2013-05-08 23:51:00,69.8,61.5,28.47,ESE,112,5.6,7.2,75,0.00,,,0.00,Rainwise IP-100,2013-05-09 04:51:00,
2013-05-08 23:56:00,69.8,61.5,28.47,South,180,5.1,9.6,75,0.00,,,0.00,Rainwise IP-100,2013-05-09 04:56:00,